Time;durP1;ratioP1;P1;durP2;ratioP2;P2;SDS_P1;SDS_P2;PMS_P1;PMS_P2;Temp;Humidity;BMP_temperature;BMP_pressure;BME280_temperature;BME280_humidity;BME280_pressure;Samples;Min_cycle;Max_cycle;Signal;HPM_P1;HPM_P2
2023/05/09 00:00:29;;;;;;;31.65;22.85;;;16.70;99.90;;;;;;4979093;28;20030;-90
2023/05/09 00:02:55;;;;;;;34.20;23.52;;;16.80;99.90;;;;;;4946328;28;20177;-92
2023/05/09 00:05:21;;;;;;;35.25;23.63;;;16.80;99.90;;;;;;4946130;28;20034;-90
2023/05/09 00:07:47;;;;;;;32.67;24.13;;;16.70;99.90;;;;;;4946424;28;20023;-91
2023/05/09 00:10:13;;;;;;;34.65;24.80;;;16.80;99.90;;;;;;4962335;28;20058;-92
2023/05/09 00:12:39;;;;;;;40.05;26.30;;;16.70;99.90;;;;;;4979045;28;20431;-93
2023/05/09 00:15:07;;;;;;;41.20;27.73;;;16.80;99.90;;;;;;4961817;28;20037;-90
2023/05/09 00:17:35;;;;;;;34.35;25.13;;;16.80;99.90;;;;;;4945416;28;20114;-91
2023/05/09 00:20:06;;;;;;;33.60;24.38;;;16.80;99.90;;;;;;4946056;28;20031;-93
2023/05/09 00:22:32;;;;;;;34.30;25.23;;;16.80;99.90;;;;;;4978748;28;20038;-92
2023/05/09 00:24:57;;;;;;;39.38;24.63;;;16.80;99.90;;;;;;4945568;28;20022;-92
2023/05/09 00:27:23;;;;;;;38.35;26.05;;;16.90;99.90;;;;;;4945141;28;20042;-92
2023/05/09 00:29:49;;;;;;;38.00;26.00;;;16.90;99.90;;;;;;4944843;28;20067;-91
2023/05/09 00:32:14;;;;;;;34.75;24.60;;;16.90;99.90;;;;;;4945240;28;20174;-92
2023/05/09 00:34:40;;;;;;;33.25;24.05;;;16.90;99.90;;;;;;4961412;28;20045;-91
2023/05/09 00:37:06;;;;;;;38.50;25.08;;;16.80;99.90;;;;;;4961070;28;20054;-91
2023/05/09 00:39:31;;;;;;;36.67;23.83;;;16.90;99.90;;;;;;4961044;28;20027;-91
2023/05/09 00:41:57;;;;;;;33.67;23.67;;;16.90;99.90;;;;;;4961440;28;20518;-91
2023/05/09 00:44:23;;;;;;;32.80;25.33;;;16.80;99.90;;;;;;4961212;28;20117;-92
2023/05/09 00:46:48;;;;;;;36.25;24.58;;;16.90;99.90;;;;;;4961329;28;20437;-91
2023/05/09 00:49:14;;;;;;;34.63;25.00;;;16.80;99.90;;;;;;4961427;28;20027;-91
2023/05/09 00:51:40;;;;;;;38.60;26.25;;;16.90;99.90;;;;;;4977878;28;20063;-91
2023/05/09 00:54:07;;;;;;;35.42;25.23;;;16.90;99.90;;;;;;4978118;28;20058;-91
2023/05/09 00:56:33;;;;;;;36.13;24.73;;;16.90;99.90;;;;;;4977126;28;20035;-90
2023/05/09 00:58:59;;;;;;;38.53;26.17;;;16.90;99.90;;;;;;4960950;28;20074;-91
2023/05/09 01:01:25;;;;;;;38.15;26.83;;;16.90;99.90;;;;;;4961224;28;20122;-91
2023/05/09 01:03:52;;;;;;;37.60;26.00;;;16.90;99.90;;;;;;4961466;28;20058;-91
2023/05/09 01:07:00;;;;;;;38.10;25.83;;;16.90;99.90;;;;;;4978506;28;20386;-90
2023/05/09 01:09:55;;;;;;;37.50;25.88;;;17.00;99.90;;;;;;4998438;28;20415;-86
2023/05/09 01:12:20;;;;;;;35.40;25.20;;;17.00;99.90;;;;;;5001180;28;20030;-86
2023/05/09 01:15:06;;;;;;;35.38;25.42;;;17.00;99.90;;;;;;5000642;28;20018;-90
2023/05/09 01:17:43;;;;;;;37.03;25.30;;;16.90;99.90;;;;;;4984460;28;20017;-89
2023/05/09 01:20:14;;;;;;;38.13;26.60;;;17.00;99.90;;;;;;4968220;28;20378;-91
2023/05/09 01:22:54;;;;;;;37.50;26.35;;;17.00;99.90;;;;;;4978429;28;20463;-91
2023/05/09 01:25:52;;;;;;;36.25;25.10;;;17.00;99.90;;;;;;4960838;28;20022;-86
2023/05/09 01:28:43;;;;;;;36.78;25.33;;;17.00;99.90;;;;;;4960713;28;20422;-91
2023/05/09 01:31:09;;;;;;;35.50;25.52;;;17.00;99.90;;;;;;4960699;28;20419;-91
2023/05/09 01:33:39;;;;;;;35.97;25.48;;;17.00;99.90;;;;;;4944207;28;20034;-93
2023/05/09 01:36:13;;;;;;;34.75;25.33;;;17.00;99.90;;;;;;4977482;28;20085;-91
2023/05/09 01:38:42;;;;;;;33.30;24.27;;;17.00;99.90;;;;;;4960004;28;20027;-91
2023/05/09 01:41:11;;;;;;;41.25;26.60;;;17.00;99.90;;;;;;4960099;28;20050;-90
2023/05/09 01:43:39;;;;;;;39.42;27.08;;;17.00;99.90;;;;;;4977079;28;20457;-91
2023/05/09 01:46:06;;;;;;;36.63;25.35;;;17.00;99.90;;;;;;4959919;28;20505;-89
2023/05/09 01:48:35;;;;;;;34.53;24.80;;;17.00;99.90;;;;;;4960198;28;20105;-91
2023/05/09 01:51:02;;;;;;;37.92;26.08;;;17.00;99.90;;;;;;4959387;28;20027;-91
2023/05/09 01:53:28;;;;;;;41.05;26.98;;;17.00;99.90;;;;;;4977064;28;20525;-90
2023/05/09 01:55:57;;;;;;;39.00;27.05;;;17.00;99.90;;;;;;4976987;28;20031;-91
2023/05/09 01:58:24;;;;;;;45.20;30.20;;;17.00;99.90;;;;;;4959846;28;20038;-92
2023/05/09 02:00:51;;;;;;;46.90;30.65;;;17.00;99.90;;;;;;4976928;28;20035;-93
2023/05/09 02:03:17;;;;;;;42.70;28.63;;;17.00;99.90;;;;;;4959971;28;20037;-91
2023/05/09 02:05:44;;;;;;;44.95;29.38;;;17.00;99.90;;;;;;4976780;28;20067;-91
2023/05/09 02:08:12;;;;;;;38.88;27.33;;;17.10;99.90;;;;;;4959586;28;20043;-91
2023/05/09 02:10:39;;;;;;;40.20;26.85;;;17.10;99.90;;;;;;4959258;28;20150;-91
2023/05/09 02:13:05;;;;;;;37.80;24.17;;;17.10;99.90;;;;;;4976664;28;20058;-91
2023/05/09 02:15:31;;;;;;;35.40;24.63;;;17.10;99.90;;;;;;4943810;28;20070;-93
2023/05/09 02:17:57;;;;;;;37.33;25.05;;;17.10;99.90;;;;;;4943827;28;20031;-92
2023/05/09 02:20:23;;;;;;;33.13;23.40;;;17.10;99.90;;;;;;4959522;28;20085;-92
2023/05/09 02:22:49;;;;;;;35.88;23.52;;;17.00;99.90;;;;;;4943220;28;20035;-91
2023/05/09 02:25:16;;;;;;;35.53;24.58;;;17.10;99.90;;;;;;4943498;28;20430;-91
2023/05/09 02:27:44;;;;;;;35.70;25.55;;;17.10;99.90;;;;;;4959213;28;20019;-91
2023/05/09 02:30:17;;;;;;;40.67;26.35;;;17.10;99.90;;;;;;4959331;28;20073;-91
2023/05/09 02:32:46;;;;;;;39.60;27.40;;;17.00;99.90;;;;;;4943175;28;20113;-92
2023/05/09 02:35:13;;;;;;;39.13;27.02;;;17.00;99.90;;;;;;4976573;28;20121;-92
2023/05/09 02:37:40;;;;;;;39.08;27.10;;;17.00;99.90;;;;;;4975464;28;20027;-90
2023/05/09 02:40:08;;;;;;;39.50;27.45;;;17.00;99.90;;;;;;4959293;28;20015;-90
2023/05/09 02:42:34;;;;;;;38.53;27.63;;;17.00;99.90;;;;;;4959118;28;20386;-91
2023/05/09 02:44:59;;;;;;;37.90;25.55;;;17.00;99.90;;;;;;4959200;28;20069;-92
2023/05/09 02:47:25;;;;;;;36.42;25.17;;;17.00;99.90;;;;;;4943197;28;20031;-90
2023/05/09 02:49:51;;;;;;;36.90;26.42;;;17.00;99.90;;;;;;4959487;28;20050;-90
2023/05/09 02:52:16;;;;;;;39.55;26.38;;;17.00;99.90;;;;;;4943532;28;20113;-91
2023/05/09 02:54:42;;;;;;;37.33;25.33;;;17.00;99.90;;;;;;4965881;28;20031;-91
2023/05/09 02:57:08;;;;;;;40.13;27.27;;;17.00;99.90;;;;;;4965325;28;20082;-90
2023/05/09 02:59:34;;;;;;;42.55;27.65;;;17.00;99.90;;;;;;4981430;28;20023;-86
2023/05/09 03:01:59;;;;;;;38.80;27.27;;;17.00;99.90;;;;;;4981696;28;20042;-90
2023/05/09 03:04:26;;;;;;;43.47;28.13;;;17.00;99.90;;;;;;4979964;28;20027;-91
2023/05/09 03:06:51;;;;;;;39.25;26.75;;;17.00;99.90;;;;;;4966277;28;20027;-91
2023/05/09 03:09:17;;;;;;;39.03;27.40;;;17.00;99.90;;;;;;4960180;28;20105;-91
2023/05/09 03:11:43;;;;;;;40.08;27.42;;;17.00;99.90;;;;;;4959773;28;20034;-91
2023/05/09 03:14:10;;;;;;;41.20;28.83;;;17.00;99.90;;;;;;4958542;28;20456;-90
2023/05/09 03:16:36;;;;;;;52.47;31.38;;;17.00;99.90;;;;;;4958799;28;20042;-91
2023/05/09 03:19:02;;;;;;;46.65;30.15;;;17.00;99.90;;;;;;4958965;28;20026;-91
2023/05/09 03:21:28;;;;;;;46.20;30.67;;;17.00;99.90;;;;;;4976274;28;20027;-90
2023/05/09 03:23:58;;;;;;;43.30;29.00;;;17.00;99.90;;;;;;4942994;28;20038;-91
2023/05/09 03:26:25;;;;;;;41.55;28.27;;;17.00;99.90;;;;;;4958852;28;20027;-90
2023/05/09 03:28:51;;;;;;;40.05;27.60;;;17.00;99.90;;;;;;4959088;28;20023;-92
2023/05/09 03:31:16;;;;;;;41.55;27.63;;;17.00;99.90;;;;;;4958888;28;20090;-90
2023/05/09 03:33:42;;;;;;;43.05;29.80;;;17.00;99.90;;;;;;4942908;28;20043;-91
2023/05/09 03:36:08;;;;;;;45.58;30.55;;;17.00;99.90;;;;;;4958601;28;20045;-91
2023/05/09 03:38:33;;;;;;;42.30;28.30;;;17.00;99.90;;;;;;4958893;28;20030;-91
2023/05/09 03:40:59;;;;;;;41.05;28.20;;;17.00;99.90;;;;;;4958505;28;20019;-91
2023/05/09 03:43:27;;;;;;;41.85;28.90;;;17.00;99.90;;;;;;4959164;28;20037;-90
2023/05/09 03:45:53;;;;;;;38.63;26.52;;;17.00;99.90;;;;;;4958789;28;20031;-90
2023/05/09 03:48:19;;;;;;;42.08;28.02;;;17.00;99.90;;;;;;4959783;28;20030;-90
2023/05/09 03:50:44;;;;;;;41.05;28.10;;;17.00;99.90;;;;;;4976000;28;20023;-90
2023/05/09 03:53:10;;;;;;;39.55;27.88;;;17.00;99.90;;;;;;4942880;28;20059;-91
2023/05/09 03:55:36;;;;;;;39.95;28.63;;;17.00;99.90;;;;;;4975468;28;20030;-91
2023/05/09 03:58:02;;;;;;;40.78;28.23;;;17.00;99.90;;;;;;4958389;28;20030;-91
2023/05/09 04:00:28;;;;;;;38.38;26.13;;;16.90;99.90;;;;;;4942416;28;20037;-89
2023/05/09 04:02:54;;;;;;;38.97;27.60;;;16.90;99.90;;;;;;4957715;28;20138;-88
2023/05/09 04:05:20;;;;;;;37.40;26.20;;;16.90;99.90;;;;;;4958394;28;20034;-88
2023/05/09 04:07:45;;;;;;;40.40;27.50;;;17.00;99.90;;;;;;4942175;28;20031;-88
2023/05/09 04:10:11;;;;;;;37.30;25.92;;;16.90;99.90;;;;;;4942209;28;20479;-88
2023/05/09 04:12:37;;;;;;;39.42;27.40;;;16.90;99.90;;;;;;4942129;28;20038;-87
2023/05/09 04:15:03;;;;;;;34.83;25.45;;;16.90;99.90;;;;;;4976730;28;20031;-89
2023/05/09 04:17:29;;;;;;;36.33;26.33;;;16.90;99.90;;;;;;4961779;28;20034;-88
2023/05/09 04:19:55;;;;;;;35.03;25.13;;;16.90;99.90;;;;;;4945744;28;20026;-89
2023/05/09 04:22:20;;;;;;;33.63;23.98;;;16.90;99.90;;;;;;4961576;28;20026;-86
2023/05/09 04:24:46;;;;;;;39.95;27.88;;;16.90;99.90;;;;;;4945523;28;20031;-89
2023/05/09 04:27:12;;;;;;;35.03;25.15;;;16.90;99.90;;;;;;4961722;28;20468;-88
2023/05/09 04:29:37;;;;;;;37.13;25.33;;;16.80;99.90;;;;;;4945672;28;20031;-88
2023/05/09 04:32:06;;;;;;;35.47;24.23;;;16.90;99.90;;;;;;4961322;28;20467;-88
2023/05/09 04:34:32;;;;;;;37.45;24.80;;;16.90;99.90;;;;;;4961619;28;20058;-89
2023/05/09 04:36:58;;;;;;;32.83;22.75;;;16.90;99.90;;;;;;4945638;28;20027;-88
2023/05/09 04:39:23;;;;;;;33.25;23.23;;;16.90;99.90;;;;;;4961912;28;20090;-88
2023/05/09 04:41:49;;;;;;;34.35;24.17;;;16.80;99.90;;;;;;4956221;28;20011;-85
2023/05/09 04:44:53;;;;;;;34.92;24.00;;;16.80;99.90;;;;;;4966382;28;20098;-88
2023/05/09 04:47:18;;;;;;;33.10;21.65;;;16.80;99.90;;;;;;4970282;28;20018;-88
2023/05/09 04:49:44;;;;;;;29.17;21.20;;;16.80;99.90;;;;;;4984004;28;20100;-88
2023/05/09 04:52:09;;;;;;;29.52;21.70;;;16.80;99.90;;;;;;4982734;28;20037;-88
2023/05/09 04:54:35;;;;;;;28.65;21.15;;;16.80;99.90;;;;;;4946196;28;20035;-88
2023/05/09 04:57:02;;;;;;;28.55;20.92;;;16.80;99.90;;;;;;4961655;28;20051;-88
2023/05/09 04:59:28;;;;;;;30.33;21.30;;;16.80;99.90;;;;;;4945331;28;20066;-88
2023/05/09 05:01:53;;;;;;;29.75;22.20;;;16.80;99.90;;;;;;4944708;28;20042;-88
2023/05/09 05:04:19;;;;;;;31.45;22.27;;;16.80;99.90;;;;;;4944663;28;20032;-88
2023/05/09 05:06:45;;;;;;;26.52;20.40;;;16.80;99.90;;;;;;4960549;28;20026;-88
2023/05/09 05:09:10;;;;;;;28.15;20.92;;;16.80;99.90;;;;;;4960338;28;20034;-87
2023/05/09 05:11:38;;;;;;;26.70;19.77;;;16.80;99.90;;;;;;4960925;28;20118;-88
2023/05/09 05:14:04;;;;;;;27.17;20.42;;;16.80;99.90;;;;;;4960594;28;20039;-88
2023/05/09 05:16:30;;;;;;;26.10;20.25;;;16.80;99.90;;;;;;4960594;28;20126;-87
2023/05/09 05:18:56;;;;;;;26.63;20.75;;;16.80;99.90;;;;;;4960340;28;20090;-88
2023/05/09 05:21:21;;;;;;;26.23;20.83;;;16.80;99.90;;;;;;4960554;28;20027;-88
2023/05/09 05:23:47;;;;;;;25.65;19.38;;;16.80;99.90;;;;;;4960528;28;20557;-88
2023/05/09 05:26:13;;;;;;;27.15;20.30;;;16.80;99.90;;;;;;4943422;28;20035;-87
2023/05/09 05:28:38;;;;;;;25.63;19.40;;;16.80;99.90;;;;;;4944240;28;20062;-88
2023/05/09 05:31:04;;;;;;;26.23;19.10;;;16.90;99.90;;;;;;4944145;28;20039;-88
2023/05/09 05:33:30;;;;;;;28.05;20.40;;;16.90;99.90;;;;;;4944133;28;20035;-88
2023/05/09 05:35:55;;;;;;;28.88;19.27;;;16.80;99.90;;;;;;4959690;28;20156;-88
2023/05/09 05:38:21;;;;;;;24.60;19.00;;;16.90;99.90;;;;;;4944079;28;20042;-87
2023/05/09 05:40:47;;;;;;;24.02;18.50;;;16.90;99.90;;;;;;4943822;28;20027;-88
2023/05/09 05:43:12;;;;;;;23.20;17.98;;;16.90;99.90;;;;;;4959844;28;20038;-87
2023/05/09 05:45:38;;;;;;;25.50;18.42;;;16.90;99.90;;;;;;4960008;28;20070;-88
2023/05/09 05:48:04;;;;;;;24.52;18.60;;;17.00;99.90;;;;;;4959815;28;20038;-88
2023/05/09 05:50:29;;;;;;;24.02;17.80;;;17.00;99.90;;;;;;4959582;28;20037;-88
2023/05/09 05:52:55;;;;;;;22.33;17.60;;;17.00;99.90;;;;;;4943343;28;20137;-87
2023/05/09 05:55:21;;;;;;;24.80;18.33;;;17.00;99.90;;;;;;4959664;28;20035;-87
2023/05/09 05:57:47;;;;;;;24.48;17.65;;;17.10;99.90;;;;;;4943797;28;20127;-87
2023/05/09 06:00:13;;;;;;;26.17;18.08;;;17.10;99.90;;;;;;4943420;28;20030;-87
2023/05/09 06:02:49;;;;;;;24.00;17.65;;;17.10;99.90;;;;;;4959697;28;20026;-88
2023/05/09 06:05:14;;;;;;;21.90;16.38;;;17.10;99.90;;;;;;4958867;28;20031;-87
2023/05/09 06:07:40;;;;;;;23.85;17.48;;;17.10;99.90;;;;;;4959531;28;20029;-88
2023/05/09 06:10:07;;;;;;;18.73;15.77;;;17.10;99.90;;;;;;4943001;28;20113;-87
2023/05/09 06:12:33;;;;;;;21.17;16.30;;;17.20;99.90;;;;;;4943366;28;20038;-87
2023/05/09 06:14:59;;;;;;;19.48;15.95;;;17.20;99.90;;;;;;4959439;28;20038;-88
2023/05/09 06:17:25;;;;;;;21.48;16.30;;;17.20;99.90;;;;;;4944418;28;20030;-87
2023/05/09 06:19:51;;;;;;;18.67;15.02;;;17.20;99.90;;;;;;4944572;28;20391;-88
2023/05/09 06:22:16;;;;;;;19.92;14.57;;;17.30;99.90;;;;;;4978349;28;20031;-87
2023/05/09 06:24:42;;;;;;;20.13;14.85;;;17.30;99.90;;;;;;4960676;28;20042;-88
2023/05/09 06:27:08;;;;;;;19.30;13.65;;;17.30;99.90;;;;;;4960689;28;20038;-87
2023/05/09 06:29:33;;;;;;;16.95;13.80;;;17.30;99.90;;;;;;4995001;28;20037;-87
2023/05/09 06:31:59;;;;;;;17.83;13.75;;;17.30;99.90;;;;;;4982002;28;20033;-84
2023/05/09 06:34:25;;;;;;;21.60;14.25;;;17.30;99.90;;;;;;4982696;28;20049;-87
2023/05/09 06:37:02;;;;;;;14.90;12.65;;;17.30;99.90;;;;;;4996857;28;20035;-89
2023/05/09 06:39:28;;;;;;;15.35;12.73;;;17.30;99.90;;;;;;4989722;28;20099;-87
2023/05/09 06:41:53;;;;;;;17.55;13.52;;;17.40;99.90;;;;;;4944678;28;20474;-88
2023/05/09 06:44:19;;;;;;;15.98;12.90;;;17.40;99.90;;;;;;4943144;28;20329;-88
2023/05/09 06:46:45;;;;;;;15.85;13.18;;;17.40;99.90;;;;;;4958665;28;20084;-85
2023/05/09 06:49:12;;;;;;;16.20;13.20;;;17.50;99.90;;;;;;4958448;28;20062;-88
2023/05/09 06:51:38;;;;;;;16.73;13.52;;;17.50;99.90;;;;;;4974529;28;20022;-88
2023/05/09 06:54:04;;;;;;;15.23;12.73;;;17.50;99.90;;;;;;4958354;28;20057;-87
2023/05/09 06:56:30;;;;;;;16.33;13.25;;;17.60;99.90;;;;;;4975799;28;20022;-87
2023/05/09 06:58:55;;;;;;;16.58;13.10;;;17.60;99.90;;;;;;4942819;28;20034;-87
2023/05/09 07:01:21;;;;;;;18.08;13.88;;;17.60;99.90;;;;;;4958752;28;20042;-87
2023/05/09 07:03:47;;;;;;;15.57;13.40;;;17.70;99.90;;;;;;4958889;28;20126;-87
2023/05/09 07:06:12;;;;;;;15.57;13.40;;;17.80;99.90;;;;;;4942215;28;20034;-88
2023/05/09 07:08:38;;;;;;;16.77;13.48;;;17.80;99.90;;;;;;4975650;28;20026;-87
2023/05/09 07:11:04;;;;;;;15.90;13.38;;;17.90;99.90;;;;;;4942233;28;20463;-86
2023/05/09 07:13:30;;;;;;;14.65;12.90;;;17.90;99.90;;;;;;4958493;28;20042;-88
2023/05/09 07:15:56;;;;;;;15.63;13.20;;;17.90;99.90;;;;;;4942342;28;20035;-88
2023/05/09 07:18:22;;;;;;;13.48;12.00;;;17.90;99.90;;;;;;4958560;28;20378;-88
2023/05/09 07:20:48;;;;;;;15.73;13.90;;;18.00;99.90;;;;;;4975662;28;20065;-87
2023/05/09 07:23:13;;;;;;;14.88;13.25;;;18.00;99.90;;;;;;4942464;28;20035;-89
2023/05/09 07:25:39;;;;;;;16.10;13.88;;;18.00;99.90;;;;;;4958376;28;20023;-88
2023/05/09 07:28:05;;;;;;;15.70;13.25;;;18.00;99.90;;;;;;4941995;28;20026;-85
2023/05/09 07:30:31;;;;;;;17.05;12.93;;;18.10;99.90;;;;;;4942128;28;20054;-87
2023/05/09 07:32:56;;;;;;;13.85;12.30;;;18.10;99.90;;;;;;4942286;28;20471;-88
2023/05/09 07:35:22;;;;;;;15.88;13.23;;;18.10;99.90;;;;;;4958218;28;20082;-87
2023/05/09 07:37:48;;;;;;;15.52;12.93;;;18.10;99.90;;;;;;4958189;28;20035;-87
2023/05/09 07:40:14;;;;;;;16.38;13.43;;;18.10;99.90;;;;;;4942250;28;20030;-86
2023/05/09 07:42:39;;;;;;;15.07;12.88;;;18.10;99.90;;;;;;4958321;28;20035;-88
2023/05/09 07:45:06;;;;;;;15.15;13.48;;;18.10;99.90;;;;;;4958171;28;20410;-89
2023/05/09 07:47:32;;;;;;;15.95;13.18;;;18.20;99.90;;;;;;4941713;28;20045;-88
2023/05/09 07:49:58;;;;;;;16.73;13.52;;;18.20;99.90;;;;;;4960028;28;20047;-87
2023/05/09 07:52:23;;;;;;;17.88;13.75;;;18.20;99.90;;;;;;4978886;28;20041;-87
2023/05/09 07:54:49;;;;;;;16.00;13.32;;;18.20;99.90;;;;;;4945960;28;20387;-87
2023/05/09 07:57:15;;;;;;;18.17;14.77;;;18.20;99.90;;;;;;4961737;28;20059;-88
2023/05/09 07:59:41;;;;;;;15.27;13.18;;;18.30;99.90;;;;;;4945837;28;20030;-88
2023/05/09 08:02:07;;;;;;;14.48;12.90;;;18.30;99.90;;;;;;4945807;28;20035;-87
2023/05/09 08:04:36;;;;;;;14.88;12.85;;;18.30;99.90;;;;;;4961623;28;20082;-87
2023/05/09 08:07:02;;;;;;;15.23;13.15;;;18.30;99.90;;;;;;4961289;28;20058;-88
2023/05/09 08:09:28;;;;;;;14.65;12.50;;;18.30;99.90;;;;;;4962139;28;20078;-88
2023/05/09 08:11:54;;;;;;;16.90;13.00;;;18.30;99.90;;;;;;4962079;28;20058;-87
2023/05/09 08:14:20;;;;;;;16.52;14.23;;;18.40;99.90;;;;;;4946693;28;20031;-88
2023/05/09 08:16:45;;;;;;;15.65;12.52;;;18.40;99.90;;;;;;4969719;28;20035;-88
2023/05/09 08:19:11;;;;;;;15.68;13.27;;;18.40;99.90;;;;;;4968609;28;20078;-87
2023/05/09 08:21:37;;;;;;;15.13;13.18;;;18.40;99.90;;;;;;4985420;28;20062;-88
2023/05/09 08:24:02;;;;;;;14.43;12.20;;;18.40;99.90;;;;;;4984886;28;20011;-87
2023/05/09 08:26:28;;;;;;;15.55;13.13;;;18.40;99.90;;;;;;4968617;28;20019;-87
2023/05/09 08:28:54;;;;;;;13.43;12.02;;;18.40;99.90;;;;;;4972293;28;20035;-88
2023/05/09 08:31:20;;;;;;;15.27;12.93;;;18.50;99.90;;;;;;4946563;28;20110;-88
2023/05/09 08:33:45;;;;;;;15.70;13.48;;;18.40;99.90;;;;;;4961792;28;20097;-88
2023/05/09 08:36:11;;;;;;;16.55;13.27;;;18.40;99.90;;;;;;4961283;28;20063;-87
2023/05/09 08:38:39;;;;;;;13.50;12.10;;;18.50;99.90;;;;;;4945076;28;20404;-88
2023/05/09 08:41:05;;;;;;;13.70;11.90;;;18.50;99.90;;;;;;4945621;28;20114;-87
2023/05/09 08:43:33;;;;;;;14.45;12.45;;;18.50;99.90;;;;;;4944900;28;20062;-88
2023/05/09 08:46:02;;;;;;;14.05;12.18;;;18.50;99.90;;;;;;4960700;28;20019;-88
2023/05/09 08:48:29;;;;;;;15.02;12.13;;;18.50;99.90;;;;;;4944983;28;20081;-87
2023/05/09 08:50:55;;;;;;;14.90;12.50;;;18.50;99.90;;;;;;4944639;28;20019;-87
2023/05/09 08:53:21;;;;;;;13.05;11.65;;;18.50;99.90;;;;;;4960340;28;20062;-88
2023/05/09 08:55:49;;;;;;;14.95;12.75;;;18.50;99.90;;;;;;4960466;28;20379;-88
2023/05/09 08:58:18;;;;;;;13.50;12.13;;;18.50;99.90;;;;;;4960702;28;20526;-87
2023/05/09 09:00:45;;;;;;;15.15;12.07;;;18.60;99.90;;;;;;4944705;28;20022;-87
2023/05/09 09:03:11;;;;;;;14.63;13.13;;;18.60;99.90;;;;;;4960324;28;20090;-87
2023/05/09 09:05:39;;;;;;;14.23;12.65;;;18.60;99.90;;;;;;4961146;28;20023;-92
2023/05/09 09:08:07;;;;;;;14.82;12.30;;;18.60;99.90;;;;;;4960717;28;20030;-93
2023/05/09 09:10:33;;;;;;;13.60;12.20;;;18.60;99.90;;;;;;4958423;28;20051;-95
2023/05/09 09:13:00;;;;;;;14.98;12.93;;;18.60;99.90;;;;;;4962043;28;20031;-89
2023/05/09 09:15:34;;;;;;;15.00;13.43;;;18.60;99.90;;;;;;4960714;28;20039;-88
2023/05/09 09:18:07;;;;;;;14.55;12.95;;;18.50;99.90;;;;;;4959815;28;20471;-89
2023/05/09 09:20:34;;;;;;;14.75;12.93;;;18.50;99.90;;;;;;4978235;28;20066;-95
2023/05/09 09:23:04;;;;;;;13.85;12.32;;;18.40;99.90;;;;;;4944829;28;20094;-92
2023/05/09 09:25:31;;;;;;;13.67;12.23;;;18.40;99.90;;;;;;4960472;28;20032;-93
2023/05/09 09:27:57;;;;;;;13.32;11.93;;;18.40;99.90;;;;;;4961137;28;20027;-91
2023/05/09 09:30:24;;;;;;;13.98;10.93;;;18.40;99.90;;;;;;4977572;28;20029;-94
2023/05/09 09:32:50;;;;;;;12.18;10.88;;;18.40;99.90;;;;;;4976963;28;20038;-92
2023/05/09 09:35:16;;;;;;;11.40;10.20;;;18.40;99.90;;;;;;4960235;28;20037;-92
2023/05/09 09:37:42;;;;;;;12.38;10.48;;;18.40;99.90;;;;;;4960122;28;20033;-94
2023/05/09 09:40:13;;;;;;;13.70;9.82;;;18.40;99.90;;;;;;4960640;28;20018;-92
2023/05/09 09:42:43;;;;;;;11.85;9.43;;;18.30;99.90;;;;;;4929243;28;20082;-92
2023/05/09 09:45:16;;;;;;;10.77;8.20;;;18.40;99.90;;;;;;4960697;28;20031;-93
2023/05/09 09:47:44;;;;;;;10.20;9.20;;;18.30;99.90;;;;;;4976682;28;20651;-93
2023/05/09 09:50:11;;;;;;;10.15;8.57;;;18.30;99.90;;;;;;4960373;28;20382;-93
2023/05/09 09:52:56;;;;;;;9.18;8.18;;;18.30;99.90;;;;;;4959948;28;20031;-92
2023/05/09 09:55:23;;;;;;;8.93;7.78;;;18.30;99.90;;;;;;4961392;28;20031;-92
2023/05/09 09:57:50;;;;;;;8.57;7.68;;;18.30;99.90;;;;;;4960192;28;20023;-94
2023/05/09 10:00:18;;;;;;;8.48;7.30;;;18.30;99.90;;;;;;4976681;28;20022;-92
2023/05/09 10:02:52;;;;;;;7.85;7.10;;;18.30;99.90;;;;;;4960826;28;20038;-91
2023/05/09 10:05:28;;;;;;;7.57;6.63;;;18.30;99.90;;;;;;4978151;28;20027;-90
2023/05/09 10:07:56;;;;;;;6.80;6.15;;;18.40;99.90;;;;;;4980871;28;20042;-91
2023/05/09 10:10:25;;;;;;;7.05;6.35;;;18.40;99.90;;;;;;4980778;28;20075;-93
2023/05/09 10:12:59;;;;;;;6.82;6.13;;;18.40;99.90;;;;;;4982648;28;20031;-92
2023/05/09 10:15:27;;;;;;;6.25;5.65;;;18.50;99.90;;;;;;4983156;28;20038;-92
2023/05/09 10:17:56;;;;;;;7.47;6.55;;;18.50;99.90;;;;;;4982389;28;20098;-91
2023/05/09 10:20:24;;;;;;;7.28;5.53;;;18.50;99.90;;;;;;4985934;28;20026;-92
2023/05/09 10:22:54;;;;;;;6.15;5.57;;;18.50;99.90;;;;;;4960590;28;20526;-92
2023/05/09 10:25:21;;;;;;;6.80;5.68;;;18.60;99.90;;;;;;4960363;28;20514;-92
2023/05/09 10:27:51;;;;;;;6.85;5.03;;;18.60;99.90;;;;;;4978193;28;20039;-92
2023/05/09 10:30:26;;;;;;;7.65;5.13;;;18.60;99.90;;;;;;4976760;28;20037;-93
2023/05/09 10:33:02;;;;;;;6.18;5.20;;;18.60;99.90;;;;;;4976651;28;20066;-92
2023/05/09 10:35:46;;;;;;;6.00;4.95;;;18.60;99.90;;;;;;4976165;28;20082;-92
2023/05/09 10:38:12;;;;;;;6.10;4.50;;;18.60;99.90;;;;;;4959908;28;20095;-92
2023/05/09 10:40:45;;;;;;;5.07;4.53;;;18.60;99.90;;;;;;4960311;28;20054;-91
2023/05/09 10:43:14;;;;;;;5.40;4.50;;;18.60;99.90;;;;;;4976572;28;20031;-95
2023/05/09 10:45:40;;;;;;;5.30;4.32;;;18.70;99.90;;;;;;4960097;28;20033;-94
2023/05/09 10:48:07;;;;;;;5.68;4.75;;;18.70;99.90;;;;;;4961155;28;20015;-93
2023/05/09 10:50:39;;;;;;;5.95;4.70;;;18.70;99.90;;;;;;4959452;28;20022;-93
2023/05/09 10:53:07;;;;;;;5.00;4.50;;;18.70;99.90;;;;;;4959311;28;20046;-95
2023/05/09 10:55:55;;;;;;;6.00;5.40;;;18.70;99.90;;;;;;4959369;28;20026;-92
2023/05/09 10:58:27;;;;;;;5.90;5.30;;;18.70;99.90;;;;;;4959026;28;20018;-91
2023/05/09 11:00:56;;;;;;;6.30;5.70;;;18.70;99.90;;;;;;4947046;28;20049;-93
2023/05/09 11:03:26;;;;;;;7.82;5.75;;;18.70;99.90;;;;;;4976197;28;20023;-93
2023/05/09 11:05:54;;;;;;;6.43;5.83;;;18.60;99.90;;;;;;4976291;28;20026;-94
2023/05/09 11:08:28;;;;;;;6.72;6.00;;;18.60;99.90;;;;;;4960201;28;20023;-95
2023/05/09 11:10:56;;;;;;;7.35;6.13;;;18.60;99.90;;;;;;4976086;28;20046;-93
2023/05/09 11:13:30;;;;;;;6.65;5.95;;;18.60;99.90;;;;;;4975433;28;20035;-94
2023/05/09 11:16:01;;;;;;;6.30;5.70;;;18.50;99.90;;;;;;4959262;28;20027;-95
2023/05/09 11:18:31;;;;;;;8.93;5.65;;;18.50;99.90;;;;;;4959168;28;20077;-95
2023/05/09 11:20:58;;;;;;;6.00;5.40;;;18.50;99.90;;;;;;4943394;28;20027;-93
2023/05/09 11:23:32;;;;;;;5.82;5.28;;;18.40;99.90;;;;;;4927660;28;20070;-94
2023/05/09 11:26:08;;;;;;;6.55;5.28;;;18.40;99.90;;;;;;4962177;28;20038;-93
2023/05/09 11:28:35;;;;;;;5.05;4.45;;;18.40;99.90;;;;;;4980605;28;20023;-94
2023/05/09 11:31:16;;;;;;;5.65;4.28;;;18.30;99.90;;;;;;4963023;28;20037;-94
2023/05/09 11:33:46;;;;;;;4.65;4.10;;;18.30;99.90;;;;;;4962789;28;20031;-93
2023/05/09 11:36:24;;;;;;;5.38;4.10;;;18.30;99.90;;;;;;4964386;28;20022;-92
2023/05/09 11:39:23;;;;;;;5.43;4.07;;;18.20;99.90;;;;;;4963893;28;20026;-92
2023/05/09 11:41:49;;;;;;;4.15;3.30;;;18.20;99.90;;;;;;4963434;28;20023;-92
2023/05/09 11:44:20;;;;;;;3.58;3.17;;;18.10;99.90;;;;;;4965291;28;20050;-92
2023/05/09 11:46:47;;;;;;;5.18;3.80;;;18.10;99.90;;;;;;4963848;28;20430;-93
2023/05/09 11:49:18;;;;;;;3.35;3.05;;;18.00;99.90;;;;;;4980304;28;20122;-92
2023/05/09 11:51:44;;;;;;;3.90;3.10;;;18.00;99.90;;;;;;4963643;28;20034;-92
2023/05/09 11:54:12;;;;;;;3.85;3.47;;;18.00;99.90;;;;;;4948631;28;20098;-94
2023/05/09 11:56:42;;;;;;;4.25;2.78;;;18.00;99.90;;;;;;4958596;28;20030;-92
2023/05/09 11:59:10;;;;;;;2.40;2.10;;;18.00;99.90;;;;;;4983925;28;20023;-94
2023/05/09 12:01:36;;;;;;;2.28;2.08;;;18.00;99.90;;;;;;4960039;28;20034;-92
2023/05/09 12:04:07;;;;;;;1.83;1.73;;;18.00;99.90;;;;;;4953965;28;20137;-91
2023/05/09 12:06:33;;;;;;;3.22;1.90;;;18.00;99.90;;;;;;4984899;28;20051;-93
2023/05/09 12:09:09;;;;;;;3.78;2.08;;;18.00;99.90;;;;;;4981544;28;20023;-92
2023/05/09 12:11:49;;;;;;;3.67;2.20;;;18.00;99.90;;;;;;4960586;28;20051;-93
2023/05/09 12:14:28;;;;;;;1.90;1.63;;;18.00;99.90;;;;;;4980408;28;20042;-93
2023/05/09 12:16:57;;;;;;;2.65;2.08;;;18.00;99.90;;;;;;4980638;28;20037;-92
2023/05/09 12:19:24;;;;;;;2.38;1.92;;;18.00;99.90;;;;;;4979970;28;20101;-92
2023/05/09 12:22:15;;;;;;;2.10;1.95;;;18.00;99.90;;;;;;4962636;28;20019;-91
2023/05/09 12:24:57;;;;;;;3.60;1.80;;;18.10;99.90;;;;;;4962259;28;20085;-92
2023/05/09 12:27:27;;;;;;;3.58;1.92;;;18.10;99.90;;;;;;4948349;28;20074;-92
2023/05/09 12:29:52;;;;;;;2.60;1.88;;;18.10;99.90;;;;;;4946630;28;20122;-92
2023/05/09 12:32:21;;;;;;;2.15;1.90;;;18.10;99.90;;;;;;4962257;28;20117;-92
2023/05/09 12:34:57;;;;;;;1.83;1.70;;;18.10;99.90;;;;;;4961599;28;20039;-92